Seattle, WA (98144)

1:28 PM PDT on March 26, 2017 (GMT -0700)
Judkins Park | | Change Station

Elev 171 ft 47.59 °N, 122.30 °W | Updated 6 seconds ago

Rain
Rain
51.6 °F
Feels Like 51.6 °F
N
2.7
Wind Variable Wind from SSE
Gusts 4.9 mph

Today
High -- | Low -- °F
--% Chance of Precip.
Yesterday
High -- | Low -- °F
Precip. -- in
Pressure 29.77 in
Visibility 10.0 miles
Clouds Mostly Cloudy 5000 ft
Overcast 6000 ft
Dew Point 41 °F
Humidity 67%
Rainfall 0.07 in
Snow Depth Not available.
6:59 AM 7:31 PM
Waning Crescent, 2% visible
METAR KBFI 261953Z 00000KT 10SM -RA BKN050 OVC060 09/07 A2977 RMK AO2 SLP081 P0000 T00940067
Pressure 29.77 in
Visibility 10.0 miles
Clouds Mostly Cloudy 5000 ft
Overcast 6000 ft
Dew Point 41 °F
Humidity 67%
Rainfall 0.07 in
Snow Depth Not available.
6:59 AM 7:31 PM
Waning Crescent, 2% visible
METAR KBFI 261953Z 00000KT 10SM -RA BKN050 OVC060 09/07 A2977 RMK AO2 SLP081 P0000 T00940067

Get Severe Weather Alerts

Thanks for signing up!

Be on the lookout for a verification email in your inbox.

You'll start receiving the daily forecast at 8 AM.

×

10-Day Weather Forecast

Almanac

Astronomy

Mar. 26, 2017 Rise Set
Actual Time
Civil Twilight
Nautical Twilight
Astronomical Twilight
Moon
Length of Visible Light
Length of Day
Tomorrow will be .
, % of the Moon is Illuminated

Today's Extremes

State Highs State Lows

Community

WunderPhotos

Upload Photos

1,962,540 photos uploaded!

WunderBlog® & News

Nearby

Air Quality

  Air Quality AQ Index Pollutant
Not available.

Snow Depth

Station Depth Elevation

Earthquake Activity

City Distance Mag. Time & Date
Minimum magnitude displayed is 2.5.

Earthquake Activity

City Distance Mag. Time & Date
Minimum magnitude displayed is 2.5.

Coastal Water Temperatures

Place Temperature

Stations

Nearby Weather Stations

Station Location Temp. Windchill Dew Point Humidity Wind Precip. Elev Updated Type
                   

Watches & Warnings

There are currently no watches in effect.